createdAt,value
2023-04-22T00:00:15.098Z,21.17
2023-04-22T00:02:38.950Z,20.08
2023-04-22T00:05:02.788Z,18.60
2023-04-22T00:07:26.504Z,21.20
2023-04-22T00:09:50.666Z,21.67
2023-04-22T00:12:15.754Z,25.40
2023-04-22T00:14:39.614Z,19.85
2023-04-22T00:17:03.272Z,20.88
2023-04-22T00:19:26.804Z,19.52
2023-04-22T00:21:50.634Z,22.58
2023-04-22T00:24:14.174Z,24.75
2023-04-22T00:26:37.910Z,21.85
2023-04-22T00:29:02.799Z,22.38
2023-04-22T00:31:26.570Z,18.15
2023-04-22T00:33:50.188Z,22.45
2023-04-22T00:36:13.858Z,23.88
2023-04-22T00:38:37.804Z,26.23
2023-04-22T00:41:01.425Z,23.98
2023-04-22T00:43:24.963Z,29.55
2023-04-22T00:45:51.100Z,31.38
2023-04-22T00:48:15.616Z,29.63
2023-04-22T00:50:39.292Z,35.65
2023-04-22T00:53:02.883Z,34.03
2023-04-22T00:55:26.920Z,26.33
2023-04-22T00:57:52.130Z,27.10
2023-04-22T01:00:16.376Z,20.83
2023-04-22T01:02:42.452Z,21.70
2023-04-22T01:05:08.511Z,21.23
2023-04-22T01:07:32.024Z,20.20
2023-04-22T01:09:55.852Z,17.80
2023-04-22T01:12:19.425Z,16.05
2023-04-22T01:14:43.427Z,17.20
2023-04-22T01:17:10.146Z,17.40
2023-04-22T01:19:35.193Z,16.23
2023-04-22T01:22:01.072Z,16.75
2023-04-22T01:24:26.588Z,16.83
2023-04-22T01:26:50.299Z,18.40
2023-04-22T01:29:15.394Z,17.63
2023-04-22T01:31:39.628Z,17.15
2023-04-22T01:34:03.661Z,19.23
2023-04-22T01:36:27.467Z,16.60
2023-04-22T01:38:51.333Z,15.25
2023-04-22T01:41:16.530Z,18.55
2023-04-22T01:43:40.834Z,18.38
2023-04-22T01:46:06.276Z,16.23
2023-04-22T01:48:29.932Z,16.35
2023-04-22T01:50:53.521Z,16.33
2023-04-22T01:53:17.176Z,16.40
2023-04-22T01:55:41.556Z,18.83
2023-04-22T01:58:07.586Z,16.48
2023-04-22T02:00:31.981Z,22.48
2023-04-22T02:02:55.709Z,18.67
2023-04-22T02:05:21.687Z,17.55
2023-04-22T02:07:45.407Z,17.05
2023-04-22T02:10:13.999Z,17.67
2023-04-22T02:12:37.680Z,18.40
2023-04-22T02:15:03.325Z,15.50
2023-04-22T02:17:27.135Z,16.05
2023-04-22T02:19:50.698Z,17.27
2023-04-22T02:22:14.341Z,18.60
2023-04-22T02:24:38.066Z,19.15
2023-04-22T02:27:01.683Z,22.08
2023-04-22T02:29:25.434Z,19.83
2023-04-22T02:31:55.249Z,16.80
2023-04-22T02:34:19.100Z,20.40
2023-04-22T02:36:43.471Z,19.10
2023-04-22T02:39:07.014Z,16.90
2023-04-22T02:41:32.113Z,17.48
2023-04-22T02:43:55.689Z,17.55
2023-04-22T02:46:19.421Z,19.85
2023-04-22T02:48:44.642Z,21.30
2023-04-22T02:51:08.410Z,20.58
2023-04-22T02:53:32.090Z,15.80
2023-04-22T02:55:55.771Z,17.38
2023-04-22T02:58:19.463Z,15.98
2023-04-22T03:00:43.498Z,15.25
2023-04-22T03:03:07.291Z,15.70
2023-04-22T03:05:32.907Z,18.08
2023-04-22T03:07:57.711Z,17.40
2023-04-22T03:10:21.514Z,17.63
2023-04-22T03:12:45.101Z,17.45
2023-04-22T03:15:10.480Z,17.60
2023-04-22T03:17:34.778Z,17.52
2023-04-22T03:20:01.857Z,16.75
2023-04-22T03:22:27.652Z,16.90
2023-04-22T03:24:54.130Z,19.38
2023-04-22T03:27:18.018Z,19.65
2023-04-22T03:29:41.963Z,16.55
2023-04-22T03:32:05.828Z,16.42
2023-04-22T03:34:30.496Z,16.75
2023-04-22T03:36:54.188Z,17.77
2023-04-22T03:39:20.147Z,16.00
2023-04-22T03:41:43.748Z,18.77
2023-04-22T03:44:07.886Z,14.35
2023-04-22T03:46:32.726Z,21.23
2023-04-22T03:49:05.381Z,14.73
2023-04-22T03:51:31.453Z,23.20
2023-04-22T03:53:57.845Z,16.65
2023-04-22T03:56:25.791Z,18.70
2023-04-22T03:58:52.717Z,20.20
2023-04-22T04:01:16.995Z,17.13
2023-04-22T04:03:44.906Z,16.48
2023-04-22T04:06:10.089Z,16.70
2023-04-22T04:08:33.902Z,19.50
2023-04-22T04:10:57.539Z,19.15
2023-04-22T04:13:22.877Z,22.90
2023-04-22T04:16:10.787Z,18.23
2023-04-22T04:18:37.449Z,22.33
2023-04-22T04:21:01.093Z,17.80
2023-04-22T04:23:27.211Z,19.90
2023-04-22T04:25:51.987Z,21.30
2023-04-22T04:28:17.659Z,16.80
2023-04-22T04:30:42.867Z,20.50
2023-04-22T04:33:07.448Z,21.15
2023-04-22T04:35:34.429Z,18.58
2023-04-22T04:37:59.379Z,23.35
2023-04-22T04:40:23.618Z,20.88
2023-04-22T04:43:19.783Z,26.65
2023-04-22T04:45:49.692Z,23.67
2023-04-22T04:48:19.961Z,21.13
2023-04-22T04:50:50.357Z,18.95
2023-04-22T04:53:14.426Z,18.63
2023-04-22T04:55:40.146Z,22.65
2023-04-22T04:58:11.669Z,17.08
2023-04-22T05:00:35.519Z,26.58
2023-04-22T05:03:00.708Z,19.58
2023-04-22T05:05:24.933Z,20.70
2023-04-22T05:07:48.883Z,21.50
2023-04-22T05:10:13.825Z,21.38
2023-04-22T05:12:37.669Z,19.42
2023-04-22T05:15:05.012Z,17.77
2023-04-22T05:17:29.170Z,19.38
2023-04-22T05:19:54.610Z,22.17
2023-04-22T05:22:18.672Z,22.55
2023-04-22T05:24:44.205Z,21.85
2023-04-22T05:27:08.311Z,17.60
2023-04-22T05:29:32.632Z,19.08
2023-04-22T05:31:57.912Z,17.10
2023-04-22T05:34:21.793Z,20.15
2023-04-22T05:36:47.627Z,22.48
2023-04-22T05:39:11.273Z,19.00
2023-04-22T05:41:35.309Z,19.63
2023-04-22T05:43:59.902Z,21.23
2023-04-22T05:46:24.417Z,19.95
2023-04-22T05:48:49.437Z,20.83
2023-04-22T05:51:31.397Z,18.42
2023-04-22T05:53:57.251Z,23.17
2023-04-22T05:56:22.310Z,17.83
2023-04-22T05:58:45.976Z,21.60
2023-04-22T06:01:17.649Z,20.25
2023-04-22T06:03:48.747Z,19.40
2023-04-22T06:06:12.574Z,17.15
2023-04-22T06:08:36.651Z,18.25
2023-04-22T06:11:02.476Z,17.45
2023-04-22T06:13:29.316Z,15.93
2023-04-22T06:15:53.056Z,22.85
2023-04-22T06:18:16.670Z,17.23
2023-04-22T06:20:40.972Z,17.83
2023-04-22T06:23:06.115Z,16.70
2023-04-22T06:25:29.982Z,16.80
2023-04-22T06:27:55.023Z,16.45
2023-04-22T06:30:19.839Z,17.20
2023-04-22T06:32:43.457Z,15.75
2023-04-22T06:35:08.698Z,15.38
2023-04-22T06:37:32.937Z,16.65
2023-04-22T06:39:56.728Z,15.98
2023-04-22T06:42:38.876Z,18.65
2023-04-22T06:45:22.508Z,16.33
2023-04-22T06:47:56.569Z,17.60
2023-04-22T06:50:26.654Z,15.13
2023-04-22T06:52:54.557Z,13.88
2023-04-22T06:55:18.473Z,14.52
2023-04-22T06:57:42.051Z,13.93
2023-04-22T07:00:09.440Z,16.17
2023-04-22T07:02:38.288Z,16.17
2023-04-22T07:05:02.019Z,13.85
2023-04-22T07:07:26.028Z,14.63
2023-04-22T07:09:49.797Z,15.10
2023-04-22T07:12:13.324Z,17.58
2023-04-22T07:14:38.140Z,11.65
2023-04-22T07:17:01.762Z,15.05
2023-04-22T07:19:26.880Z,15.07
2023-04-22T07:21:50.836Z,13.68
2023-04-22T07:24:14.471Z,12.82
2023-04-22T07:26:38.258Z,13.48
2023-04-22T07:29:01.861Z,13.90
2023-04-22T07:31:25.465Z,12.48
2023-04-22T07:33:49.064Z,14.60
2023-04-22T07:36:14.057Z,14.88
2023-04-22T07:38:38.067Z,13.82
2023-04-22T07:41:02.099Z,15.85
2023-04-22T07:43:26.157Z,13.52
2023-04-22T07:45:49.833Z,14.57
2023-04-22T07:48:13.505Z,13.82
2023-04-22T07:50:38.841Z,13.85
2023-04-22T07:53:03.975Z,15.38
2023-04-22T07:55:27.499Z,13.45
2023-04-22T07:57:51.120Z,12.52
2023-04-22T08:00:16.106Z,14.57
2023-04-22T08:02:39.768Z,16.48
2023-04-22T08:05:03.495Z,14.77
2023-04-22T08:07:32.927Z,14.57
2023-04-22T08:09:58.640Z,14.90
2023-04-22T08:12:22.268Z,13.98
2023-04-22T08:14:45.803Z,13.75
2023-04-22T08:17:09.434Z,13.43
2023-04-22T08:19:33.012Z,13.15
2023-04-22T08:21:56.610Z,12.00
2023-04-22T08:24:20.173Z,15.52
2023-04-22T08:26:45.185Z,17.85
2023-04-22T08:29:08.964Z,15.45
2023-04-22T08:31:32.725Z,17.10
2023-04-22T08:33:56.560Z,12.80
2023-04-22T08:36:22.807Z,15.75
2023-04-22T08:38:48.328Z,12.30
2023-04-22T08:41:14.523Z,12.95
2023-04-22T08:43:39.854Z,14.68
2023-04-22T08:46:03.611Z,10.52
2023-04-22T08:48:27.864Z,11.75
2023-04-22T08:50:52.008Z,13.90
2023-04-22T08:53:15.992Z,12.23
2023-04-22T08:55:41.311Z,13.38
2023-04-22T08:58:06.264Z,15.77
2023-04-22T09:00:32.270Z,15.02
2023-04-22T09:02:57.493Z,9.93
2023-04-22T09:05:27.972Z,14.32
2023-04-22T09:07:51.910Z,13.15
2023-04-22T09:10:16.975Z,14.32
2023-04-22T09:12:51.064Z,18.13
2023-04-22T09:15:14.798Z,9.68
2023-04-22T09:17:39.796Z,13.02
2023-04-22T09:20:06.182Z,14.02
2023-04-22T09:22:38.327Z,15.35
2023-04-22T09:25:02.233Z,15.05
2023-04-22T09:27:26.928Z,12.80
2023-04-22T09:29:51.457Z,10.73
2023-04-22T09:32:19.346Z,14.48
2023-04-22T09:34:51.905Z,13.77
2023-04-22T09:37:15.516Z,13.02
2023-04-22T09:39:39.412Z,9.57
2023-04-22T09:42:03.299Z,14.88
2023-04-22T09:44:29.378Z,12.63
2023-04-22T09:46:57.860Z,10.93
2023-04-22T09:49:23.196Z,11.90
2023-04-22T09:51:49.880Z,15.45
2023-04-22T09:54:13.570Z,16.63
2023-04-22T09:56:48.203Z,12.82
2023-04-22T09:59:12.199Z,13.05
2023-04-22T10:01:37.998Z,13.70
2023-04-22T10:04:01.770Z,10.65
2023-04-22T10:06:25.548Z,8.90
2023-04-22T10:08:50.606Z,11.95
2023-04-22T10:11:14.422Z,10.57
2023-04-22T10:13:38.144Z,11.60
2023-04-22T10:16:02.696Z,9.10
2023-04-22T10:18:28.726Z,8.77
2023-04-22T10:20:53.084Z,10.80
2023-04-22T10:23:20.839Z,13.35
2023-04-22T10:25:51.449Z,15.55
2023-04-22T10:28:18.459Z,7.22
2023-04-22T10:30:42.317Z,8.18
2023-04-22T10:33:39.200Z,8.55
2023-04-22T10:36:14.765Z,10.80
2023-04-22T10:38:40.130Z,14.02
2023-04-22T10:41:05.310Z,10.00
2023-04-22T10:43:43.070Z,10.13
2023-04-22T10:46:06.842Z,11.88
2023-04-22T10:48:51.682Z,12.82
2023-04-22T10:51:40.168Z,12.13
2023-04-22T10:54:03.763Z,8.13
2023-04-22T10:56:28.950Z,8.25
2023-04-22T10:58:52.811Z,8.65
2023-04-22T11:01:16.932Z,8.30
2023-04-22T11:03:41.178Z,11.23
2023-04-22T11:06:19.451Z,10.48
2023-04-22T11:08:47.591Z,10.38
2023-04-22T11:11:13.793Z,10.48
2023-04-22T11:13:39.049Z,9.20
2023-04-22T11:16:03.570Z,9.95
2023-04-22T11:18:28.447Z,11.70
2023-04-22T11:20:53.741Z,9.32
2023-04-22T11:23:26.508Z,9.23
2023-04-22T11:25:54.703Z,8.13
2023-04-22T11:28:22.872Z,8.75
2023-04-22T11:30:51.687Z,9.38
2023-04-22T11:33:17.671Z,7.10
2023-04-22T11:35:42.727Z,10.27
2023-04-22T11:38:08.774Z,8.32
2023-04-22T11:40:36.918Z,9.55
2023-04-22T11:43:05.783Z,9.18
2023-04-22T11:45:31.344Z,8.43
2023-04-22T11:47:57.450Z,12.15
2023-04-22T11:50:26.868Z,9.75
2023-04-22T11:52:53.563Z,10.38
2023-04-22T11:55:21.077Z,11.13
2023-04-22T11:57:46.736Z,8.65
2023-04-22T12:00:17.467Z,7.95
2023-04-22T12:02:42.437Z,8.85
2023-04-22T12:05:15.841Z,6.72
2023-04-22T12:07:40.396Z,12.25
2023-04-22T12:10:05.620Z,8.90
2023-04-22T12:12:33.056Z,10.90
2023-04-22T12:14:58.076Z,7.25
2023-04-22T12:17:25.652Z,8.85
2023-04-22T12:19:49.511Z,8.20
2023-04-22T12:22:14.659Z,12.85
2023-04-22T12:24:38.215Z,10.13
2023-04-22T12:27:01.926Z,14.93
2023-04-22T12:29:34.047Z,10.32
2023-04-22T12:31:57.741Z,9.80
2023-04-22T12:34:21.264Z,8.55
2023-04-22T12:36:44.967Z,10.32
2023-04-22T12:39:10.688Z,11.05
2023-04-22T12:41:34.363Z,7.95
2023-04-22T12:43:57.922Z,9.60
2023-04-22T12:46:21.679Z,7.93
2023-04-22T12:48:45.834Z,6.65
2023-04-22T12:51:09.461Z,11.25
2023-04-22T12:53:33.119Z,8.40
2023-04-22T12:55:58.494Z,7.70
2023-04-22T12:58:22.062Z,6.00
2023-04-22T13:00:45.692Z,6.22
2023-04-22T13:03:09.397Z,6.40
2023-04-22T13:05:33.282Z,7.35
2023-04-22T13:08:06.586Z,6.15
2023-04-22T13:10:31.118Z,7.43
2023-04-22T13:13:09.804Z,8.65
2023-04-22T13:15:40.515Z,9.23
2023-04-22T13:18:04.161Z,7.50
2023-04-22T13:20:27.917Z,9.48
2023-04-22T13:22:53.568Z,7.93
2023-04-22T13:25:17.352Z,7.43
2023-04-22T13:27:40.884Z,7.60
2023-04-22T13:30:07.637Z,10.25
2023-04-22T13:32:31.335Z,6.95
2023-04-22T13:34:55.047Z,7.93
2023-04-22T13:37:20.219Z,7.32
2023-04-22T13:39:43.874Z,9.82
2023-04-22T13:42:07.723Z,8.60
2023-04-22T13:44:31.624Z,9.10
2023-04-22T13:46:56.561Z,7.70
2023-04-22T13:49:20.204Z,8.40
2023-04-22T13:51:43.780Z,9.02
2023-04-22T13:54:08.517Z,7.75
2023-04-22T13:56:32.103Z,8.95
2023-04-22T13:58:56.126Z,5.97
2023-04-22T14:01:19.802Z,8.18
2023-04-22T14:03:45.687Z,10.48
2023-04-22T14:06:09.484Z,9.18
2023-04-22T14:08:33.151Z,10.38
2023-04-22T14:10:57.233Z,10.20
2023-04-22T14:13:21.291Z,8.38
2023-04-22T14:15:44.894Z,11.20
2023-04-22T14:18:08.570Z,10.45
2023-04-22T14:20:33.556Z,8.68
2023-04-22T14:22:57.244Z,8.52
2023-04-22T14:25:20.957Z,9.82
2023-04-22T14:27:44.675Z,7.60
2023-04-22T14:30:09.740Z,11.63
2023-04-22T14:32:33.846Z,15.85
2023-04-22T14:34:57.447Z,12.20
2023-04-22T14:37:23.866Z,8.82
2023-04-22T14:39:47.895Z,7.85
2023-04-22T14:42:11.574Z,9.48
2023-04-22T14:44:36.285Z,7.45
2023-04-22T14:46:59.923Z,9.52
2023-04-22T14:49:23.580Z,7.90
2023-04-22T14:51:47.257Z,9.25
2023-04-22T14:54:12.260Z,10.35
2023-04-22T14:56:36.180Z,8.25
2023-04-22T14:58:59.754Z,9.15
2023-04-22T15:01:23.483Z,9.15
2023-04-22T15:03:49.001Z,11.02
2023-04-22T15:06:13.026Z,9.73
2023-04-22T15:08:36.755Z,8.63
2023-04-22T15:11:01.839Z,13.65
2023-04-22T15:13:25.829Z,9.45
2023-04-22T15:15:49.509Z,8.60
2023-04-22T15:18:13.100Z,11.45
2023-04-22T15:20:37.363Z,11.15
2023-04-22T15:23:03.220Z,8.90
2023-04-22T15:25:27.625Z,9.05
2023-04-22T15:27:56.509Z,12.48
2023-04-22T15:30:20.231Z,12.40
2023-04-22T15:32:44.239Z,9.10
2023-04-22T15:35:09.615Z,8.65
2023-04-22T15:37:33.467Z,7.55
2023-04-22T15:39:57.149Z,8.25
2023-04-22T15:42:21.283Z,10.10
2023-04-22T15:44:46.434Z,10.32
2023-04-22T15:47:11.193Z,8.32
2023-04-22T15:49:35.732Z,9.80
2023-04-22T15:52:01.115Z,8.95
2023-04-22T15:54:24.721Z,8.80
2023-04-22T15:56:48.316Z,8.13
2023-04-22T15:59:11.966Z,12.43
2023-04-22T16:01:40.332Z,11.57
2023-04-22T16:04:04.959Z,10.18
2023-04-22T16:06:29.156Z,7.68
2023-04-22T16:09:02.850Z,7.93
2023-04-22T16:11:26.662Z,13.52
2023-04-22T16:13:50.237Z,7.43
2023-04-22T16:16:14.025Z,11.98
2023-04-22T16:18:44.215Z,11.65
2023-04-22T16:21:11.539Z,8.43
2023-04-22T16:26:49.063Z,11.55
2023-04-22T16:29:24.850Z,10.45
2023-04-22T16:31:48.565Z,8.93
2023-04-22T16:34:13.529Z,10.63
2023-04-22T16:36:37.121Z,8.07
2023-04-22T16:39:00.901Z,9.68
2023-04-22T16:41:24.954Z,8.43
2023-04-22T16:43:49.265Z,10.77
2023-04-22T16:46:13.068Z,8.50
2023-04-22T16:48:37.200Z,7.85
2023-04-22T16:51:03.660Z,8.52
2023-04-22T16:53:27.283Z,8.95
2023-04-22T16:55:50.944Z,7.68
2023-04-22T16:58:17.167Z,12.48
2023-04-22T17:00:47.128Z,6.78
2023-04-22T17:03:12.090Z,10.20
2023-04-22T17:05:35.813Z,8.43
2023-04-22T17:08:01.195Z,9.70
2023-04-22T17:10:25.072Z,11.63
2023-04-22T17:12:53.458Z,10.88
2023-04-22T17:15:21.205Z,12.77
2023-04-22T17:17:48.321Z,9.75
2023-04-22T17:20:12.711Z,8.90
2023-04-22T17:22:36.350Z,9.98
2023-04-22T17:25:01.292Z,19.38
2023-04-22T17:27:28.472Z,8.60
2023-04-22T17:29:54.177Z,12.05
2023-04-22T17:32:21.960Z,9.02
2023-04-22T17:34:45.644Z,8.27
2023-04-22T17:37:12.981Z,9.82
2023-04-22T17:39:41.098Z,12.63
2023-04-22T17:42:06.316Z,10.45
2023-04-22T17:44:31.095Z,10.43
2023-04-22T17:46:54.739Z,8.52
2023-04-22T17:49:18.378Z,8.70
2023-04-22T17:51:41.997Z,9.68
2023-04-22T17:54:06.429Z,11.15
2023-04-22T17:56:39.683Z,9.02
2023-04-22T17:59:12.726Z,7.75
2023-04-22T18:04:42.692Z,12.65
2023-04-22T18:07:06.315Z,12.50
2023-04-22T18:09:35.125Z,10.10
2023-04-22T18:12:29.263Z,15.23
2023-04-22T18:15:07.688Z,16.02
2023-04-22T18:17:35.875Z,12.82
2023-04-22T18:20:18.532Z,16.48
2023-04-22T18:22:56.379Z,15.98
2023-04-22T18:25:21.936Z,12.90
2023-04-22T18:27:54.999Z,13.95
2023-04-22T18:30:23.740Z,16.17
2023-04-22T18:32:48.144Z,16.55
2023-04-22T18:35:11.984Z,17.42
2023-04-22T18:37:39.110Z,14.25
2023-04-22T18:40:06.043Z,17.08
2023-04-22T18:42:47.700Z,16.77
2023-04-22T18:45:13.637Z,18.55
2023-04-22T18:47:49.459Z,17.30
2023-04-22T18:50:19.988Z,15.50
2023-04-22T18:52:45.286Z,12.25
2023-04-22T18:55:16.385Z,16.02
2023-04-22T18:57:41.670Z,12.75
2023-04-22T19:00:08.475Z,17.50
2023-04-22T19:02:39.963Z,15.35
2023-04-22T19:05:10.040Z,13.85
2023-04-22T19:07:39.468Z,18.05
2023-04-22T19:10:05.392Z,20.48
2023-04-22T19:12:31.814Z,17.23
2023-04-22T19:15:01.499Z,17.25
2023-04-22T19:17:27.160Z,19.05
2023-04-22T19:19:51.507Z,17.45
2023-04-22T19:22:16.955Z,19.40
2023-04-22T19:24:41.349Z,18.77
2023-04-22T19:27:12.143Z,17.38
2023-04-22T19:29:36.159Z,16.75
2023-04-22T19:32:00.651Z,17.10
2023-04-22T19:34:24.668Z,20.33
2023-04-22T19:36:49.899Z,18.52
2023-04-22T19:39:17.618Z,17.10
2023-04-22T19:41:41.756Z,17.95
2023-04-22T19:44:06.843Z,18.80
2023-04-22T19:46:31.622Z,18.83
2023-04-22T19:48:57.315Z,18.17
2023-04-22T19:51:21.846Z,15.65
2023-04-22T19:53:46.814Z,18.58
2023-04-22T19:56:12.774Z,20.42
2023-04-22T19:58:37.201Z,21.40
2023-04-22T20:01:02.603Z,21.15
2023-04-22T20:03:28.162Z,31.17
2023-04-22T20:05:54.476Z,26.30
2023-04-22T20:08:21.966Z,29.27
2023-04-22T20:10:49.738Z,36.17
2023-04-22T20:13:16.074Z,34.70
2023-04-22T20:15:41.201Z,42.78
2023-04-22T20:18:05.864Z,42.42
2023-04-22T20:20:33.605Z,40.33
2023-04-22T20:23:00.413Z,41.30
2023-04-22T20:25:24.969Z,39.28
2023-04-22T20:27:50.310Z,36.42
2023-04-22T20:30:17.029Z,40.28
2023-04-22T20:32:42.218Z,37.25
2023-04-22T20:35:11.549Z,40.28
2023-04-22T20:37:37.110Z,40.10
2023-04-22T20:40:04.292Z,38.55
2023-04-22T20:42:29.096Z,36.65
2023-04-22T20:44:53.132Z,39.75
2023-04-22T20:47:19.060Z,36.08
2023-04-22T20:49:45.242Z,38.47
2023-04-22T20:52:09.699Z,37.83
2023-04-22T20:54:34.165Z,39.30
2023-04-22T20:56:59.022Z,36.65
2023-04-22T20:59:22.872Z,33.97
2023-04-22T21:01:49.463Z,33.15
2023-04-22T21:04:17.101Z,37.00
2023-04-22T21:06:41.972Z,29.33
2023-04-22T21:09:08.004Z,28.95
2023-04-22T21:11:32.919Z,27.60
2023-04-22T21:13:57.784Z,28.20
2023-04-22T21:16:26.851Z,27.25
2023-04-22T21:18:51.976Z,24.75
2023-04-22T21:21:19.168Z,26.90
2023-04-22T21:23:43.147Z,25.00
2023-04-22T21:26:07.539Z,27.75
2023-04-22T21:28:31.968Z,25.30
2023-04-22T21:30:56.678Z,22.40
2023-04-22T21:33:20.239Z,22.33
2023-04-22T21:35:43.973Z,22.38
2023-04-22T21:38:10.765Z,21.38
2023-04-22T21:40:35.509Z,23.02
2023-04-22T21:43:00.995Z,21.20
2023-04-22T21:45:25.141Z,19.95
2023-04-22T21:47:49.035Z,18.73
2023-04-22T21:50:13.297Z,19.42
2023-04-22T21:52:37.817Z,23.05
2023-04-22T21:55:04.083Z,23.02
2023-04-22T21:57:28.403Z,21.05
2023-04-22T21:59:52.493Z,19.23
2023-04-22T22:02:16.851Z,20.75
2023-04-22T22:04:42.320Z,20.25
2023-04-22T22:07:06.677Z,19.98
2023-04-22T22:09:34.976Z,19.42
2023-04-22T22:12:01.941Z,20.92
2023-04-22T22:14:26.337Z,16.63
2023-04-22T22:16:54.533Z,21.00
2023-04-22T22:19:20.711Z,23.15
2023-04-22T22:21:44.651Z,20.92
2023-04-22T22:24:09.945Z,17.77
2023-04-22T22:26:36.365Z,21.92
2023-04-22T22:29:01.779Z,19.70
2023-04-22T22:31:26.460Z,16.65
2023-04-22T22:33:50.624Z,17.58
2023-04-22T22:36:15.020Z,17.00
2023-04-22T22:38:39.561Z,18.13
2023-04-22T22:41:04.612Z,19.00
2023-04-22T22:43:28.671Z,16.38
2023-04-22T22:45:55.705Z,15.55
2023-04-22T22:48:20.187Z,17.92
2023-04-22T22:50:46.779Z,22.25
2023-04-22T22:53:10.539Z,18.33
2023-04-22T22:55:37.347Z,20.23
2023-04-22T22:58:05.169Z,15.27
2023-04-22T23:00:29.405Z,20.38
2023-04-22T23:02:54.745Z,18.73
2023-04-22T23:05:19.100Z,15.40
2023-04-22T23:07:43.617Z,14.48
2023-04-22T23:10:09.594Z,17.15
2023-04-22T23:12:34.648Z,17.83
2023-04-22T23:14:59.021Z,17.20
2023-04-22T23:17:23.232Z,18.05
2023-04-22T23:19:52.297Z,16.67
2023-04-22T23:22:16.831Z,18.73
2023-04-22T23:24:41.933Z,15.70
2023-04-22T23:27:07.184Z,17.83
2023-04-22T23:29:32.151Z,14.73
2023-04-22T23:31:57.004Z,17.13
2023-04-22T23:34:23.860Z,17.42
2023-04-22T23:36:50.062Z,14.77
2023-04-22T23:39:13.562Z,16.98
2023-04-22T23:41:37.809Z,13.73
2023-04-22T23:44:01.984Z,17.42
2023-04-22T23:46:27.771Z,14.80
2023-04-22T23:48:51.545Z,17.65
2023-04-22T23:51:16.872Z,18.25
2023-04-22T23:53:41.877Z,16.55
2023-04-22T23:56:06.492Z,17.00
2023-04-22T23:58:30.669Z,16.50
